sensor_id;sensor_type;location;lat;lon;timestamp;P1;durP1;ratioP1;P2;durP2;ratioP2
61471;SDS011;47337;54.068;12.114;2024-01-15T00:00:17;9.80;;;1.30;;
61471;SDS011;47337;54.068;12.114;2024-01-15T00:02:43;9.73;;;1.58;;
61471;SDS011;47337;54.068;12.114;2024-01-15T00:05:08;5.30;;;1.10;;
61471;SDS011;47337;54.068;12.114;2024-01-15T00:07:33;5.05;;;1.17;;
61471;SDS011;47337;54.068;12.114;2024-01-15T00:09:58;4.68;;;1.40;;
61471;SDS011;47337;54.068;12.114;2024-01-15T00:12:26;10.32;;;1.52;;
61471;SDS011;47337;54.068;12.114;2024-01-15T00:14:51;7.60;;;1.75;;
61471;SDS011;47337;54.068;12.114;2024-01-15T00:17:17;3.47;;;1.45;;
61471;SDS011;47337;54.068;12.114;2024-01-15T00:19:42;4.43;;;1.23;;
61471;SDS011;47337;54.068;12.114;2024-01-15T00:22:09;6.63;;;1.75;;
61471;SDS011;47337;54.068;12.114;2024-01-15T00:24:35;5.30;;;1.40;;
61471;SDS011;47337;54.068;12.114;2024-01-15T00:27:00;10.35;;;2.45;;
61471;SDS011;47337;54.068;12.114;2024-01-15T00:29:25;11.07;;;1.95;;
61471;SDS011;47337;54.068;12.114;2024-01-15T00:31:53;5.97;;;2.13;;
61471;SDS011;47337;54.068;12.114;2024-01-15T00:34:19;14.77;;;2.85;;
61471;SDS011;47337;54.068;12.114;2024-01-15T00:36:44;8.45;;;1.90;;
61471;SDS011;47337;54.068;12.114;2024-01-15T00:39:09;5.95;;;1.65;;
61471;SDS011;47337;54.068;12.114;2024-01-15T00:41:35;6.50;;;1.67;;
61471;SDS011;47337;54.068;12.114;2024-01-15T00:44:01;8.70;;;1.90;;
61471;SDS011;47337;54.068;12.114;2024-01-15T00:46:26;7.25;;;1.65;;
61471;SDS011;47337;54.068;12.114;2024-01-15T00:48:51;9.90;;;1.70;;
61471;SDS011;47337;54.068;12.114;2024-01-15T00:51:17;10.30;;;2.58;;
61471;SDS011;47337;54.068;12.114;2024-01-15T00:53:42;9.38;;;1.42;;
61471;SDS011;47337;54.068;12.114;2024-01-15T00:56:07;7.30;;;1.27;;
61471;SDS011;47337;54.068;12.114;2024-01-15T00:58:32;3.50;;;1.63;;
61471;SDS011;47337;54.068;12.114;2024-01-15T01:00:58;9.27;;;1.73;;
61471;SDS011;47337;54.068;12.114;2024-01-15T01:03:23;8.02;;;1.80;;
61471;SDS011;47337;54.068;12.114;2024-01-15T01:05:48;9.85;;;1.50;;
61471;SDS011;47337;54.068;12.114;2024-01-15T01:08:14;4.00;;;1.23;;
61471;SDS011;47337;54.068;12.114;2024-01-15T01:10:40;6.45;;;1.80;;
61471;SDS011;47337;54.068;12.114;2024-01-15T01:13:07;7.10;;;1.83;;
61471;SDS011;47337;54.068;12.114;2024-01-15T01:15:33;10.77;;;2.95;;
61471;SDS011;47337;54.068;12.114;2024-01-15T01:17:58;13.68;;;1.80;;
61471;SDS011;47337;54.068;12.114;2024-01-15T01:20:23;9.73;;;1.30;;
61471;SDS011;47337;54.068;12.114;2024-01-15T01:22:48;9.63;;;1.55;;
61471;SDS011;47337;54.068;12.114;2024-01-15T01:25:16;6.00;;;1.52;;
61471;SDS011;47337;54.068;12.114;2024-01-15T01:27:41;7.72;;;1.40;;
61471;SDS011;47337;54.068;12.114;2024-01-15T01:30:08;4.50;;;1.10;;
61471;SDS011;47337;54.068;12.114;2024-01-15T01:32:34;5.95;;;1.33;;
61471;SDS011;47337;54.068;12.114;2024-01-15T01:34:59;5.70;;;1.15;;
61471;SDS011;47337;54.068;12.114;2024-01-15T01:37:24;6.13;;;1.20;;
61471;SDS011;47337;54.068;12.114;2024-01-15T01:39:50;8.45;;;2.08;;
61471;SDS011;47337;54.068;12.114;2024-01-15T01:42:15;5.13;;;1.23;;
61471;SDS011;47337;54.068;12.114;2024-01-15T01:44:40;6.90;;;1.40;;
61471;SDS011;47337;54.068;12.114;2024-01-15T01:47:05;4.97;;;1.98;;
61471;SDS011;47337;54.068;12.114;2024-01-15T01:49:31;11.75;;;1.60;;
61471;SDS011;47337;54.068;12.114;2024-01-15T01:51:57;7.90;;;2.03;;
61471;SDS011;47337;54.068;12.114;2024-01-15T01:54:22;9.45;;;1.88;;
61471;SDS011;47337;54.068;12.114;2024-01-15T01:56:48;8.85;;;1.95;;
61471;SDS011;47337;54.068;12.114;2024-01-15T01:59:14;5.35;;;1.42;;
61471;SDS011;47337;54.068;12.114;2024-01-15T02:01:42;7.28;;;1.35;;
61471;SDS011;47337;54.068;12.114;2024-01-15T02:04:13;3.70;;;1.10;;
61471;SDS011;47337;54.068;12.114;2024-01-15T02:06:39;4.10;;;0.80;;
61471;SDS011;47337;54.068;12.114;2024-01-15T02:09:04;12.45;;;1.70;;
61471;SDS011;47337;54.068;12.114;2024-01-15T02:11:30;11.57;;;1.65;;
61471;SDS011;47337;54.068;12.114;2024-01-15T02:13:56;12.40;;;1.60;;
61471;SDS011;47337;54.068;12.114;2024-01-15T02:16:21;6.53;;;1.52;;
61471;SDS011;47337;54.068;12.114;2024-01-15T02:18:46;7.25;;;0.95;;
61471;SDS011;47337;54.068;12.114;2024-01-15T02:21:11;5.60;;;1.50;;
61471;SDS011;47337;54.068;12.114;2024-01-15T02:23:37;8.38;;;1.70;;
61471;SDS011;47337;54.068;12.114;2024-01-15T02:26:02;6.18;;;1.30;;
61471;SDS011;47337;54.068;12.114;2024-01-15T02:28:28;14.98;;;1.88;;
61471;SDS011;47337;54.068;12.114;2024-01-15T02:30:53;13.43;;;1.63;;
61471;SDS011;47337;54.068;12.114;2024-01-15T02:33:19;9.20;;;1.23;;
61471;SDS011;47337;54.068;12.114;2024-01-15T02:35:44;6.35;;;1.40;;
61471;SDS011;47337;54.068;12.114;2024-01-15T02:38:11;6.90;;;1.13;;
61471;SDS011;47337;54.068;12.114;2024-01-15T02:40:37;12.13;;;2.25;;
61471;SDS011;47337;54.068;12.114;2024-01-15T02:43:03;11.43;;;1.33;;
61471;SDS011;47337;54.068;12.114;2024-01-15T02:45:31;8.18;;;1.55;;
61471;SDS011;47337;54.068;12.114;2024-01-15T02:47:56;7.53;;;1.10;;
61471;SDS011;47337;54.068;12.114;2024-01-15T02:50:21;15.07;;;2.00;;
61471;SDS011;47337;54.068;12.114;2024-01-15T02:52:46;6.38;;;1.20;;
61471;SDS011;47337;54.068;12.114;2024-01-15T02:55:12;8.90;;;1.27;;
61471;SDS011;47337;54.068;12.114;2024-01-15T02:57:37;12.10;;;1.45;;
61471;SDS011;47337;54.068;12.114;2024-01-15T03:00:02;11.82;;;2.00;;
61471;SDS011;47337;54.068;12.114;2024-01-15T03:02:28;11.90;;;2.03;;
61471;SDS011;47337;54.068;12.114;2024-01-15T03:04:54;8.05;;;2.17;;
61471;SDS011;47337;54.068;12.114;2024-01-15T03:07:19;7.00;;;1.20;;
61471;SDS011;47337;54.068;12.114;2024-01-15T03:09:46;7.50;;;1.58;;
61471;SDS011;47337;54.068;12.114;2024-01-15T03:12:12;4.72;;;1.23;;
61471;SDS011;47337;54.068;12.114;2024-01-15T03:14:37;10.23;;;1.00;;
61471;SDS011;47337;54.068;12.114;2024-01-15T03:17:02;12.15;;;1.88;;
61471;SDS011;47337;54.068;12.114;2024-01-15T03:19:28;15.65;;;1.90;;
61471;SDS011;47337;54.068;12.114;2024-01-15T03:21:53;5.95;;;1.23;;
61471;SDS011;47337;54.068;12.114;2024-01-15T03:24:18;12.68;;;1.83;;
61471;SDS011;47337;54.068;12.114;2024-01-15T03:26:43;4.22;;;1.48;;
61471;SDS011;47337;54.068;12.114;2024-01-15T03:29:09;10.98;;;1.77;;
61471;SDS011;47337;54.068;12.114;2024-01-15T03:31:34;10.63;;;1.58;;
61471;SDS011;47337;54.068;12.114;2024-01-15T03:33:59;15.02;;;3.00;;
61471;SDS011;47337;54.068;12.114;2024-01-15T03:36:25;18.38;;;1.77;;
61471;SDS011;47337;54.068;12.114;2024-01-15T03:38:50;9.73;;;1.40;;
61471;SDS011;47337;54.068;12.114;2024-01-15T03:41:18;6.32;;;0.93;;
61471;SDS011;47337;54.068;12.114;2024-01-15T03:43:43;6.10;;;1.35;;
61471;SDS011;47337;54.068;12.114;2024-01-15T03:46:08;8.05;;;1.10;;
61471;SDS011;47337;54.068;12.114;2024-01-15T03:48:34;10.43;;;1.92;;
61471;SDS011;47337;54.068;12.114;2024-01-15T03:50:59;27.73;;;3.13;;
61471;SDS011;47337;54.068;12.114;2024-01-15T03:53:24;13.38;;;1.63;;
61471;SDS011;47337;54.068;12.114;2024-01-15T03:55:49;7.25;;;1.20;;
61471;SDS011;47337;54.068;12.114;2024-01-15T03:58:15;8.98;;;1.75;;
61471;SDS011;47337;54.068;12.114;2024-01-15T04:00:41;9.73;;;1.45;;
61471;SDS011;47337;54.068;12.114;2024-01-15T04:03:06;9.85;;;1.85;;
61471;SDS011;47337;54.068;12.114;2024-01-15T04:05:34;10.90;;;1.50;;
61471;SDS011;47337;54.068;12.114;2024-01-15T04:07:59;12.02;;;2.13;;
61471;SDS011;47337;54.068;12.114;2024-01-15T04:10:27;14.43;;;2.38;;
61471;SDS011;47337;54.068;12.114;2024-01-15T04:12:52;10.95;;;1.98;;
61471;SDS011;47337;54.068;12.114;2024-01-15T04:15:17;10.27;;;1.58;;
61471;SDS011;47337;54.068;12.114;2024-01-15T04:17:45;14.55;;;2.17;;
61471;SDS011;47337;54.068;12.114;2024-01-15T04:20:10;8.43;;;1.58;;
61471;SDS011;47337;54.068;12.114;2024-01-15T04:22:36;6.97;;;1.85;;
61471;SDS011;47337;54.068;12.114;2024-01-15T04:25:01;7.50;;;1.10;;
61471;SDS011;47337;54.068;12.114;2024-01-15T04:27:26;6.32;;;1.25;;
61471;SDS011;47337;54.068;12.114;2024-01-15T04:29:52;4.85;;;1.10;;
61471;SDS011;47337;54.068;12.114;2024-01-15T04:32:17;9.98;;;1.73;;
61471;SDS011;47337;54.068;12.114;2024-01-15T04:34:43;7.20;;;1.15;;
61471;SDS011;47337;54.068;12.114;2024-01-15T04:37:08;13.82;;;1.77;;
61471;SDS011;47337;54.068;12.114;2024-01-15T04:39:33;10.60;;;2.25;;
61471;SDS011;47337;54.068;12.114;2024-01-15T04:41:59;8.30;;;2.00;;
61471;SDS011;47337;54.068;12.114;2024-01-15T04:44:24;11.10;;;1.40;;
61471;SDS011;47337;54.068;12.114;2024-01-15T04:46:49;3.53;;;1.20;;
61471;SDS011;47337;54.068;12.114;2024-01-15T04:49:14;10.65;;;1.83;;
61471;SDS011;47337;54.068;12.114;2024-01-15T04:51:40;6.20;;;1.33;;
61471;SDS011;47337;54.068;12.114;2024-01-15T04:54:07;6.68;;;0.82;;
61471;SDS011;47337;54.068;12.114;2024-01-15T04:56:32;4.43;;;1.08;;
61471;SDS011;47337;54.068;12.114;2024-01-15T04:58:57;4.45;;;1.02;;
61471;SDS011;47337;54.068;12.114;2024-01-15T05:01:23;8.10;;;1.17;;
61471;SDS011;47337;54.068;12.114;2024-01-15T05:03:48;4.50;;;0.93;;
61471;SDS011;47337;54.068;12.114;2024-01-15T05:06:14;8.80;;;1.35;;
61471;SDS011;47337;54.068;12.114;2024-01-15T05:08:39;7.05;;;0.82;;
61471;SDS011;47337;54.068;12.114;2024-01-15T05:11:05;2.67;;;0.80;;
61471;SDS011;47337;54.068;12.114;2024-01-15T05:13:30;9.07;;;2.03;;
61471;SDS011;47337;54.068;12.114;2024-01-15T05:15:55;7.78;;;1.00;;
61471;SDS011;47337;54.068;12.114;2024-01-15T05:18:20;10.80;;;1.92;;
61471;SDS011;47337;54.068;12.114;2024-01-15T05:20:46;4.70;;;1.02;;
61471;SDS011;47337;54.068;12.114;2024-01-15T05:23:11;6.85;;;1.70;;
61471;SDS011;47337;54.068;12.114;2024-01-15T05:25:36;3.22;;;0.85;;
61471;SDS011;47337;54.068;12.114;2024-01-15T05:28:01;5.03;;;1.15;;
61471;SDS011;47337;54.068;12.114;2024-01-15T05:30:27;8.18;;;1.00;;
61471;SDS011;47337;54.068;12.114;2024-01-15T05:32:52;4.28;;;1.23;;
61471;SDS011;47337;54.068;12.114;2024-01-15T05:35:19;4.72;;;1.35;;
61471;SDS011;47337;54.068;12.114;2024-01-15T05:37:45;5.57;;;1.00;;
61471;SDS011;47337;54.068;12.114;2024-01-15T05:40:11;9.50;;;1.15;;
61471;SDS011;47337;54.068;12.114;2024-01-15T05:42:37;4.65;;;0.98;;
61471;SDS011;47337;54.068;12.114;2024-01-15T05:45:02;9.18;;;1.80;;
61471;SDS011;47337;54.068;12.114;2024-01-15T05:47:29;2.63;;;0.80;;
61471;SDS011;47337;54.068;12.114;2024-01-15T05:49:56;8.93;;;0.90;;
61471;SDS011;47337;54.068;12.114;2024-01-15T05:52:21;7.20;;;1.13;;
61471;SDS011;47337;54.068;12.114;2024-01-15T05:54:47;7.22;;;1.17;;
61471;SDS011;47337;54.068;12.114;2024-01-15T05:57:17;3.05;;;0.63;;
61471;SDS011;47337;54.068;12.114;2024-01-15T05:59:43;2.90;;;0.75;;
61471;SDS011;47337;54.068;12.114;2024-01-15T06:02:09;5.75;;;1.00;;
61471;SDS011;47337;54.068;12.114;2024-01-15T06:04:34;3.92;;;1.33;;
61471;SDS011;47337;54.068;12.114;2024-01-15T06:06:59;7.80;;;0.90;;
61471;SDS011;47337;54.068;12.114;2024-01-15T06:09:24;9.80;;;1.15;;
61471;SDS011;47337;54.068;12.114;2024-01-15T06:11:52;9.30;;;0.98;;
61471;SDS011;47337;54.068;12.114;2024-01-15T06:14:18;5.75;;;1.30;;
61471;SDS011;47337;54.068;12.114;2024-01-15T06:16:43;6.47;;;0.98;;
61471;SDS011;47337;54.068;12.114;2024-01-15T06:19:08;6.70;;;0.90;;
61471;SDS011;47337;54.068;12.114;2024-01-15T06:21:33;4.50;;;0.47;;
61471;SDS011;47337;54.068;12.114;2024-01-15T06:24:01;2.85;;;0.50;;
61471;SDS011;47337;54.068;12.114;2024-01-15T06:26:26;5.13;;;0.50;;
61471;SDS011;47337;54.068;12.114;2024-01-15T06:28:52;10.55;;;0.73;;
61471;SDS011;47337;54.068;12.114;2024-01-15T06:31:17;3.15;;;0.50;;
61471;SDS011;47337;54.068;12.114;2024-01-15T06:33:45;5.55;;;0.85;;
61471;SDS011;47337;54.068;12.114;2024-01-15T06:36:13;4.95;;;0.55;;
61471;SDS011;47337;54.068;12.114;2024-01-15T06:38:38;2.67;;;0.50;;
61471;SDS011;47337;54.068;12.114;2024-01-15T06:41:03;3.83;;;0.52;;
61471;SDS011;47337;54.068;12.114;2024-01-15T06:43:28;3.75;;;0.45;;
61471;SDS011;47337;54.068;12.114;2024-01-15T06:45:54;1.38;;;0.45;;
61471;SDS011;47337;54.068;12.114;2024-01-15T06:48:23;1.23;;;0.63;;
61471;SDS011;47337;54.068;12.114;2024-01-15T06:50:49;4.55;;;0.52;;
61471;SDS011;47337;54.068;12.114;2024-01-15T06:53:14;1.30;;;0.30;;
61471;SDS011;47337;54.068;12.114;2024-01-15T06:55:39;1.05;;;0.20;;
61471;SDS011;47337;54.068;12.114;2024-01-15T06:58:05;0.35;;;0.20;;
61471;SDS011;47337;54.068;12.114;2024-01-15T07:00:30;0.88;;;0.30;;
61471;SDS011;47337;54.068;12.114;2024-01-15T07:02:58;2.50;;;0.38;;
61471;SDS011;47337;54.068;12.114;2024-01-15T07:05:23;2.22;;;0.30;;
61471;SDS011;47337;54.068;12.114;2024-01-15T07:07:51;0.57;;;0.20;;
61471;SDS011;47337;54.068;12.114;2024-01-15T07:10:16;2.13;;;0.22;;
61471;SDS011;47337;54.068;12.114;2024-01-15T07:12:42;4.15;;;0.70;;
61471;SDS011;47337;54.068;12.114;2024-01-15T07:15:07;0.68;;;0.20;;
61471;SDS011;47337;54.068;12.114;2024-01-15T07:17:33;1.15;;;0.20;;
61471;SDS011;47337;54.068;12.114;2024-01-15T07:19:58;1.42;;;0.20;;
61471;SDS011;47337;54.068;12.114;2024-01-15T07:22:24;4.60;;;0.40;;
61471;SDS011;47337;54.068;12.114;2024-01-15T07:24:51;0.80;;;0.60;;
61471;SDS011;47337;54.068;12.114;2024-01-15T07:27:16;0.43;;;0.20;;
61471;SDS011;47337;54.068;12.114;2024-01-15T07:29:41;4.05;;;0.40;;
61471;SDS011;47337;54.068;12.114;2024-01-15T07:32:08;4.00;;;0.50;;
61471;SDS011;47337;54.068;12.114;2024-01-15T07:34:33;1.10;;;0.40;;
61471;SDS011;47337;54.068;12.114;2024-01-15T07:36:58;2.10;;;0.60;;
61471;SDS011;47337;54.068;12.114;2024-01-15T07:39:26;0.80;;;0.30;;
61471;SDS011;47337;54.068;12.114;2024-01-15T07:41:53;0.95;;;0.30;;
61471;SDS011;47337;54.068;12.114;2024-01-15T07:44:19;2.63;;;0.47;;
61471;SDS011;47337;54.068;12.114;2024-01-15T07:46:44;4.55;;;0.80;;
61471;SDS011;47337;54.068;12.114;2024-01-15T07:49:10;3.90;;;0.80;;
61471;SDS011;47337;54.068;12.114;2024-01-15T07:51:35;4.63;;;0.50;;
61471;SDS011;47337;54.068;12.114;2024-01-15T07:54:01;0.70;;;0.30;;
61471;SDS011;47337;54.068;12.114;2024-01-15T07:56:26;1.75;;;0.43;;
61471;SDS011;47337;54.068;12.114;2024-01-15T07:58:52;3.85;;;1.02;;
61471;SDS011;47337;54.068;12.114;2024-01-15T08:01:17;2.30;;;0.40;;
61471;SDS011;47337;54.068;12.114;2024-01-15T08:03:43;1.73;;;0.50;;
61471;SDS011;47337;54.068;12.114;2024-01-15T08:06:08;3.80;;;0.75;;
61471;SDS011;47337;54.068;12.114;2024-01-15T08:08:34;2.63;;;0.63;;
61471;SDS011;47337;54.068;12.114;2024-01-15T08:11:00;5.72;;;0.70;;
61471;SDS011;47337;54.068;12.114;2024-01-15T08:13:26;3.80;;;0.70;;
61471;SDS011;47337;54.068;12.114;2024-01-15T08:15:51;0.98;;;0.40;;
61471;SDS011;47337;54.068;12.114;2024-01-15T08:18:19;2.33;;;0.63;;
61471;SDS011;47337;54.068;12.114;2024-01-15T08:20:46;1.85;;;0.38;;
61471;SDS011;47337;54.068;12.114;2024-01-15T08:23:11;4.28;;;0.65;;
61471;SDS011;47337;54.068;12.114;2024-01-15T08:25:37;2.75;;;0.70;;
61471;SDS011;47337;54.068;12.114;2024-01-15T08:28:02;2.58;;;0.65;;
61471;SDS011;47337;54.068;12.114;2024-01-15T08:30:27;1.30;;;0.70;;
61471;SDS011;47337;54.068;12.114;2024-01-15T08:32:56;3.53;;;0.68;;
61471;SDS011;47337;54.068;12.114;2024-01-15T08:35:21;5.43;;;1.02;;
61471;SDS011;47337;54.068;12.114;2024-01-15T08:37:51;1.05;;;0.50;;
61471;SDS011;47337;54.068;12.114;2024-01-15T08:40:17;1.48;;;0.45;;
61471;SDS011;47337;54.068;12.114;2024-01-15T08:42:43;6.45;;;1.58;;
61471;SDS011;47337;54.068;12.114;2024-01-15T08:45:08;2.63;;;0.65;;
61471;SDS011;47337;54.068;12.114;2024-01-15T08:47:34;3.80;;;0.82;;
61471;SDS011;47337;54.068;12.114;2024-01-15T08:49:59;2.35;;;0.50;;
61471;SDS011;47337;54.068;12.114;2024-01-15T08:52:27;2.33;;;0.60;;
61471;SDS011;47337;54.068;12.114;2024-01-15T08:54:52;1.80;;;0.55;;
61471;SDS011;47337;54.068;12.114;2024-01-15T08:57:17;1.23;;;0.55;;
61471;SDS011;47337;54.068;12.114;2024-01-15T08:59:43;2.50;;;0.50;;
61471;SDS011;47337;54.068;12.114;2024-01-15T09:02:08;1.33;;;0.57;;
61471;SDS011;47337;54.068;12.114;2024-01-15T09:04:33;4.93;;;0.70;;
61471;SDS011;47337;54.068;12.114;2024-01-15T09:06:58;1.75;;;0.60;;
61471;SDS011;47337;54.068;12.114;2024-01-15T09:09:24;3.33;;;0.55;;
61471;SDS011;47337;54.068;12.114;2024-01-15T09:11:50;5.30;;;0.68;;
61471;SDS011;47337;54.068;12.114;2024-01-15T09:14:15;0.95;;;0.47;;
61471;SDS011;47337;54.068;12.114;2024-01-15T09:16:43;4.93;;;0.45;;
61471;SDS011;47337;54.068;12.114;2024-01-15T09:19:08;2.63;;;0.85;;
61471;SDS011;47337;54.068;12.114;2024-01-15T09:21:33;2.47;;;0.60;;
61471;SDS011;47337;54.068;12.114;2024-01-15T09:23:59;3.45;;;1.08;;
61471;SDS011;47337;54.068;12.114;2024-01-15T09:26:24;7.95;;;0.70;;
61471;SDS011;47337;54.068;12.114;2024-01-15T09:28:52;1.67;;;0.63;;
61471;SDS011;47337;54.068;12.114;2024-01-15T09:31:17;4.55;;;1.15;;
61471;SDS011;47337;54.068;12.114;2024-01-15T09:33:43;1.67;;;0.50;;
61471;SDS011;47337;54.068;12.114;2024-01-15T09:36:09;3.25;;;1.13;;
61471;SDS011;47337;54.068;12.114;2024-01-15T09:38:34;8.65;;;1.05;;
61471;SDS011;47337;54.068;12.114;2024-01-15T09:41:02;1.58;;;0.63;;
61471;SDS011;47337;54.068;12.114;2024-01-15T09:43:27;2.83;;;0.63;;
61471;SDS011;47337;54.068;12.114;2024-01-15T09:45:53;2.22;;;0.98;;
61471;SDS011;47337;54.068;12.114;2024-01-15T09:48:19;1.58;;;0.60;;
61471;SDS011;47337;54.068;12.114;2024-01-15T09:50:44;1.55;;;0.70;;
61471;SDS011;47337;54.068;12.114;2024-01-15T09:53:12;0.75;;;0.40;;
61471;SDS011;47337;54.068;12.114;2024-01-15T09:55:39;0.90;;;0.60;;
61471;SDS011;47337;54.068;12.114;2024-01-15T09:58:04;2.08;;;0.50;;
61471;SDS011;47337;54.068;12.114;2024-01-15T10:00:30;1.73;;;0.55;;
61471;SDS011;47337;54.068;12.114;2024-01-15T10:02:58;2.47;;;0.55;;
61471;SDS011;47337;54.068;12.114;2024-01-15T10:05:25;3.25;;;0.88;;
61471;SDS011;47337;54.068;12.114;2024-01-15T10:07:50;3.05;;;0.80;;
61471;SDS011;47337;54.068;12.114;2024-01-15T10:10:16;1.48;;;0.70;;
61471;SDS011;47337;54.068;12.114;2024-01-15T10:12:41;3.15;;;0.40;;
61471;SDS011;47337;54.068;12.114;2024-01-15T10:15:10;2.15;;;0.40;;
61471;SDS011;47337;54.068;12.114;2024-01-15T10:17:38;0.60;;;0.50;;
61471;SDS011;47337;54.068;12.114;2024-01-15T10:20:11;1.60;;;0.63;;
61471;SDS011;47337;54.068;12.114;2024-01-15T10:22:39;4.07;;;0.98;;
61471;SDS011;47337;54.068;12.114;2024-01-15T10:25:05;2.22;;;0.77;;
61471;SDS011;47337;54.068;12.114;2024-01-15T10:27:33;3.50;;;0.70;;
61471;SDS011;47337;54.068;12.114;2024-01-15T10:29:59;2.28;;;0.57;;
61471;SDS011;47337;54.068;12.114;2024-01-15T10:32:25;4.15;;;0.70;;
61471;SDS011;47337;54.068;12.114;2024-01-15T10:34:52;1.25;;;0.90;;
61471;SDS011;47337;54.068;12.114;2024-01-15T10:37:17;2.10;;;0.55;;
61471;SDS011;47337;54.068;12.114;2024-01-15T10:39:42;0.95;;;0.50;;
61471;SDS011;47337;54.068;12.114;2024-01-15T10:42:07;2.00;;;0.40;;
61471;SDS011;47337;54.068;12.114;2024-01-15T10:44:33;2.08;;;0.80;;
61471;SDS011;47337;54.068;12.114;2024-01-15T10:46:59;3.60;;;0.77;;
61471;SDS011;47337;54.068;12.114;2024-01-15T10:49:24;3.35;;;0.60;;
61471;SDS011;47337;54.068;12.114;2024-01-15T10:51:52;3.25;;;0.80;;
61471;SDS011;47337;54.068;12.114;2024-01-15T10:54:19;1.65;;;0.63;;
61471;SDS011;47337;54.068;12.114;2024-01-15T10:56:46;6.43;;;0.90;;
61471;SDS011;47337;54.068;12.114;2024-01-15T10:59:11;0.60;;;0.52;;
61471;SDS011;47337;54.068;12.114;2024-01-15T11:01:37;1.60;;;0.60;;
61471;SDS011;47337;54.068;12.114;2024-01-15T11:04:03;1.33;;;0.47;;
61471;SDS011;47337;54.068;12.114;2024-01-15T11:06:28;2.70;;;1.05;;
61471;SDS011;47337;54.068;12.114;2024-01-15T11:09:08;5.28;;;1.73;;
61471;SDS011;47337;54.068;12.114;2024-01-15T11:11:40;5.20;;;0.65;;
61471;SDS011;47337;54.068;12.114;2024-01-15T11:14:05;2.47;;;0.60;;
61471;SDS011;47337;54.068;12.114;2024-01-15T11:16:53;1.55;;;0.47;;
61471;SDS011;47337;54.068;12.114;2024-01-15T11:19:18;2.05;;;0.73;;
61471;SDS011;47337;54.068;12.114;2024-01-15T11:21:46;2.30;;;0.70;;
61471;SDS011;47337;54.068;12.114;2024-01-15T11:24:11;1.98;;;0.55;;
61471;SDS011;47337;54.068;12.114;2024-01-15T11:26:57;0.35;;;0.30;;
61471;SDS011;47337;54.068;12.114;2024-01-15T11:29:28;2.30;;;0.68;;
61471;SDS011;47337;54.068;12.114;2024-01-15T11:34:49;1.52;;;0.30;;
61471;SDS011;47337;54.068;12.114;2024-01-15T11:37:10;1.23;;;0.30;;
61471;SDS011;47337;54.068;12.114;2024-01-15T11:39:44;3.78;;;0.60;;
61471;SDS011;47337;54.068;12.114;2024-01-15T11:42:10;1.38;;;0.75;;
61471;SDS011;47337;54.068;12.114;2024-01-15T11:44:36;1.55;;;0.70;;
61471;SDS011;47337;54.068;12.114;2024-01-15T11:47:02;1.85;;;0.60;;
61471;SDS011;47337;54.068;12.114;2024-01-15T11:49:42;0.50;;;0.43;;
61471;SDS011;47337;54.068;12.114;2024-01-15T11:52:12;0.90;;;0.30;;
61471;SDS011;47337;54.068;12.114;2024-01-15T11:54:46;1.83;;;0.40;;
61471;SDS011;47337;54.068;12.114;2024-01-15T11:57:16;2.40;;;0.60;;
61471;SDS011;47337;54.068;12.114;2024-01-15T11:59:44;1.35;;;0.40;;
61471;SDS011;47337;54.068;12.114;2024-01-15T12:02:12;0.95;;;0.45;;
61471;SDS011;47337;54.068;12.114;2024-01-15T12:04:38;1.10;;;0.70;;
61471;SDS011;47337;54.068;12.114;2024-01-15T12:07:04;4.85;;;0.55;;
61471;SDS011;47337;54.068;12.114;2024-01-15T12:09:29;1.98;;;0.82;;
61471;SDS011;47337;54.068;12.114;2024-01-15T12:11:57;2.17;;;0.70;;
61471;SDS011;47337;54.068;12.114;2024-01-15T12:14:30;4.47;;;0.60;;
61471;SDS011;47337;54.068;12.114;2024-01-15T12:16:55;2.55;;;0.80;;
61471;SDS011;47337;54.068;12.114;2024-01-15T12:19:21;2.17;;;0.50;;
61471;SDS011;47337;54.068;12.114;2024-01-15T12:21:47;1.67;;;0.50;;
61471;SDS011;47337;54.068;12.114;2024-01-15T12:24:13;1.98;;;0.60;;
61471;SDS011;47337;54.068;12.114;2024-01-15T12:26:38;1.20;;;0.50;;
61471;SDS011;47337;54.068;12.114;2024-01-15T12:29:06;1.52;;;0.40;;
61471;SDS011;47337;54.068;12.114;2024-01-15T12:31:31;1.05;;;0.40;;
61471;SDS011;47337;54.068;12.114;2024-01-15T12:33:57;0.73;;;0.60;;
61471;SDS011;47337;54.068;12.114;2024-01-15T12:36:24;3.60;;;0.60;;
61471;SDS011;47337;54.068;12.114;2024-01-15T12:38:50;2.30;;;0.38;;
61471;SDS011;47337;54.068;12.114;2024-01-15T12:41:17;2.65;;;0.50;;
61471;SDS011;47337;54.068;12.114;2024-01-15T12:43:42;1.77;;;0.50;;
61471;SDS011;47337;54.068;12.114;2024-01-15T12:46:08;1.33;;;0.30;;
61471;SDS011;47337;54.068;12.114;2024-01-15T12:48:35;4.28;;;0.65;;
61471;SDS011;47337;54.068;12.114;2024-01-15T12:51:05;1.42;;;0.28;;
61471;SDS011;47337;54.068;12.114;2024-01-15T12:53:30;1.45;;;0.80;;
61471;SDS011;47337;54.068;12.114;2024-01-15T12:55:55;2.42;;;0.45;;
61471;SDS011;47337;54.068;12.114;2024-01-15T12:58:21;1.52;;;0.30;;
61471;SDS011;47337;54.068;12.114;2024-01-15T13:00:46;1.55;;;0.50;;
61471;SDS011;47337;54.068;12.114;2024-01-15T13:03:12;0.75;;;0.30;;
61471;SDS011;47337;54.068;12.114;2024-01-15T13:05:38;2.85;;;0.40;;
61471;SDS011;47337;54.068;12.114;2024-01-15T13:08:07;1.48;;;0.45;;
61471;SDS011;47337;54.068;12.114;2024-01-15T13:10:32;1.42;;;0.25;;
61471;SDS011;47337;54.068;12.114;2024-01-15T13:12:57;4.63;;;0.68;;
61471;SDS011;47337;54.068;12.114;2024-01-15T13:15:23;0.73;;;0.30;;
61471;SDS011;47337;54.068;12.114;2024-01-15T13:17:48;1.73;;;0.40;;
61471;SDS011;47337;54.068;12.114;2024-01-15T13:20:13;2.40;;;0.65;;
61471;SDS011;47337;54.068;12.114;2024-01-15T13:22:38;2.38;;;0.47;;
61471;SDS011;47337;54.068;12.114;2024-01-15T13:25:05;3.65;;;0.50;;
61471;SDS011;47337;54.068;12.114;2024-01-15T13:27:32;1.27;;;0.40;;
61471;SDS011;47337;54.068;12.114;2024-01-15T13:29:59;0.85;;;0.40;;
61471;SDS011;47337;54.068;12.114;2024-01-15T13:32:25;7.30;;;1.33;;
61471;SDS011;47337;54.068;12.114;2024-01-15T13:34:56;3.00;;;0.68;;
61471;SDS011;47337;54.068;12.114;2024-01-15T13:37:22;0.95;;;0.50;;
61471;SDS011;47337;54.068;12.114;2024-01-15T13:39:49;0.65;;;0.40;;
61471;SDS011;47337;54.068;12.114;2024-01-15T13:42:15;1.63;;;0.52;;
61471;SDS011;47337;54.068;12.114;2024-01-15T13:44:40;1.88;;;0.50;;
61471;SDS011;47337;54.068;12.114;2024-01-15T13:47:06;2.03;;;0.40;;
61471;SDS011;47337;54.068;12.114;2024-01-15T13:49:31;3.55;;;0.50;;
61471;SDS011;47337;54.068;12.114;2024-01-15T13:52:00;2.60;;;0.57;;
61471;SDS011;47337;54.068;12.114;2024-01-15T13:54:25;1.08;;;0.50;;
61471;SDS011;47337;54.068;12.114;2024-01-15T13:56:50;0.60;;;0.40;;
61471;SDS011;47337;54.068;12.114;2024-01-15T13:59:15;2.17;;;0.47;;
61471;SDS011;47337;54.068;12.114;2024-01-15T14:01:43;4.72;;;0.73;;
61471;SDS011;47337;54.068;12.114;2024-01-15T14:04:08;1.48;;;0.30;;
61471;SDS011;47337;54.068;12.114;2024-01-15T14:06:33;4.78;;;0.73;;
61471;SDS011;47337;54.068;12.114;2024-01-15T14:09:01;1.77;;;0.50;;
61471;SDS011;47337;54.068;12.114;2024-01-15T14:11:29;5.95;;;0.75;;
61471;SDS011;47337;54.068;12.114;2024-01-15T14:13:54;0.70;;;0.50;;
61471;SDS011;47337;54.068;12.114;2024-01-15T14:16:20;1.35;;;0.60;;
61471;SDS011;47337;54.068;12.114;2024-01-15T14:18:45;2.63;;;0.85;;
61471;SDS011;47337;54.068;12.114;2024-01-15T14:21:11;4.82;;;0.73;;
61471;SDS011;47337;54.068;12.114;2024-01-15T14:23:36;2.80;;;0.35;;
61471;SDS011;47337;54.068;12.114;2024-01-15T14:26:01;1.15;;;0.65;;
61471;SDS011;47337;54.068;12.114;2024-01-15T14:28:26;3.03;;;0.57;;